Home > Products > Valid Products > TAF

000
FTUS45 KLKN 271432 AAC
TAFEKO
TAF AMD
KEKO 271432Z 2715/2812 VRB03KT 6SM BR VCFG FEW001 BKN050
     FM271530 20008KT P6SM VCSH BKN050
     FM272200 22005KT P6SM -SHSN OVC025
     FM280200 30005KT P6SM VCSH OVC035=



000
FTUS45 KLKN 271432 AAC
TAFEKO
TAF AMD
KEKO 271432Z 2715/2812 VRB03KT 6SM BR VCFG FEW001 BKN050
     FM271530 20008KT P6SM VCSH BKN050
     FM272200 22005KT P6SM -SHSN OVC025
     FM280200 30005KT P6SM VCSH OVC035=



000
FTUS45 KLKN 271432 AAC
TAFEKO
TAF AMD
KEKO 271432Z 2715/2812 VRB03KT 6SM BR VCFG FEW001 BKN050
     FM271530 20008KT P6SM VCSH BKN050
     FM272200 22005KT P6SM -SHSN OVC025
     FM280200 30005KT P6SM VCSH OVC035=



000
FTUS45 KLKN 271432 AAC
TAFEKO
TAF AMD
KEKO 271432Z 2715/2812 VRB03KT 6SM BR VCFG FEW001 BKN050
     FM271530 20008KT P6SM VCSH BKN050
     FM272200 22005KT P6SM -SHSN OVC025
     FM280200 30005KT P6SM VCSH OVC035=



000
FTUS45 KLKN 271431 AAA
TAFWMC
TAF AMD
KWMC 271431Z 2715/2812 18006KT P6SM VCSH SCT020 OVC040
      TEMPO 2715/2719 5SM -SN BKN018
     FM272000 26007KT P6SM -SHRASN OVC035
     FM280200 34005KT P6SM VCSH OVC040=



000
FTUS45 KLKN 271431 AAA
TAFWMC
TAF AMD
KWMC 271431Z 2715/2812 18006KT P6SM VCSH SCT020 OVC040
      TEMPO 2715/2719 5SM -SN BKN018
     FM272000 26007KT P6SM -SHRASN OVC035
     FM280200 34005KT P6SM VCSH OVC040=



000
FTUS45 KLKN 271431 AAA
TAFWMC
TAF AMD
KWMC 271431Z 2715/2812 18006KT P6SM VCSH SCT020 OVC040
      TEMPO 2715/2719 5SM -SN BKN018
     FM272000 26007KT P6SM -SHRASN OVC035
     FM280200 34005KT P6SM VCSH OVC040=



000
FTUS45 KLKN 271431 AAA
TAFWMC
TAF AMD
KWMC 271431Z 2715/2812 18006KT P6SM VCSH SCT020 OVC040
      TEMPO 2715/2719 5SM -SN BKN018
     FM272000 26007KT P6SM -SHRASN OVC035
     FM280200 34005KT P6SM VCSH OVC040=



000
FTUS45 KLKN 271344 AAB
TAFEKO
TAF AMD
KEKO 271344Z 2714/2812 VRB03KT 4SM BR VCFG SCT001 BKN050
      TEMPO 2714/2716 1/4SM FZFG BKN001
     FM271600 20008KT P6SM VCSH BKN050
     FM272200 22005KT P6SM -SHSN OVC025
     FM280200 30005KT P6SM VCSH OVC035=



000
FTUS45 KLKN 271344 AAB
TAFEKO
TAF AMD
KEKO 271344Z 2714/2812 VRB03KT 4SM BR VCFG SCT001 BKN050
      TEMPO 2714/2716 1/4SM FZFG BKN001
     FM271600 20008KT P6SM VCSH BKN050
     FM272200 22005KT P6SM -SHSN OVC025
     FM280200 30005KT P6SM VCSH OVC035=



000
FTUS45 KLKN 271344 AAB
TAFEKO
TAF AMD
KEKO 271344Z 2714/2812 VRB03KT 4SM BR VCFG SCT001 BKN050
      TEMPO 2714/2716 1/4SM FZFG BKN001
     FM271600 20008KT P6SM VCSH BKN050
     FM272200 22005KT P6SM -SHSN OVC025
     FM280200 30005KT P6SM VCSH OVC035=



000
FTUS45 KLKN 271344 AAB
TAFEKO
TAF AMD
KEKO 271344Z 2714/2812 VRB03KT 4SM BR VCFG SCT001 BKN050
      TEMPO 2714/2716 1/4SM FZFG BKN001
     FM271600 20008KT P6SM VCSH BKN050
     FM272200 22005KT P6SM -SHSN OVC025
     FM280200 30005KT P6SM VCSH OVC035=



000
FTUS45 KLKN 271335 AAA
TAFEKO
TAF AMD
KEKO 271335Z 2714/2812 VRB03KT 4SM BR VCFG SCT001 BKN050
      TEMPO 2714/2716 1/4SM FZFG BKN001
     FM271800 20008KT P6SM VCSH OVC040
     FM272200 22005KT P6SM -SHSN OVC025
     FM280200 30005KT P6SM VCSH OVC035=



000
FTUS45 KLKN 271335 AAA
TAFEKO
TAF AMD
KEKO 271335Z 2714/2812 VRB03KT 4SM BR VCFG SCT001 BKN050
      TEMPO 2714/2716 1/4SM FZFG BKN001
     FM271800 20008KT P6SM VCSH OVC040
     FM272200 22005KT P6SM -SHSN OVC025
     FM280200 30005KT P6SM VCSH OVC035=



000
FTUS45 KLKN 271335 AAA
TAFEKO
TAF AMD
KEKO 271335Z 2714/2812 VRB03KT 4SM BR VCFG SCT001 BKN050
      TEMPO 2714/2716 1/4SM FZFG BKN001
     FM271800 20008KT P6SM VCSH OVC040
     FM272200 22005KT P6SM -SHSN OVC025
     FM280200 30005KT P6SM VCSH OVC035=



000
FTUS45 KLKN 271120
TAFELY
TAF
KELY 271120Z 2712/2812 17009KT P6SM BKN070
     FM272300 19007KT P6SM VCSH OVC040
     FM280100 20009KT 3SM -SHSN OVC012=



000
FTUS45 KLKN 271120
TAFEKO
TAF
KEKO 271120Z 2712/2812 VRB03KT P6SM BKN050
     FM271800 20008KT P6SM VCSH OVC040
     FM272200 22005KT P6SM -SHSN OVC025
     FM280200 30005KT P6SM VCSH OVC035=



000
FTUS45 KLKN 271120
TAFTPH
TAF
KTPH 271120Z 2712/2812 35011KT P6SM BKN120
     FM271800 20012G22KT P6SM BKN070
     FM280000 30007KT P6SM -SHRASN OVC050=



000
FTUS45 KLKN 271120
TAFTPH
TAF
KTPH 271120Z 2712/2812 35011KT P6SM BKN120
     FM271800 20012G22KT P6SM BKN070
     FM280000 30007KT P6SM -SHRASN OVC050=



000
FTUS45 KLKN 271120
TAFEKO
TAF
KEKO 271120Z 2712/2812 VRB03KT P6SM BKN050
     FM271800 20008KT P6SM VCSH OVC040
     FM272200 22005KT P6SM -SHSN OVC025
     FM280200 30005KT P6SM VCSH OVC035=



000
FTUS45 KLKN 271120
TAFWMC
TAF
KWMC 271120Z 2712/2812 16005KT P6SM VCSH OVC050
     FM272000 26007KT P6SM -SHRASN OVC035
     FM280200 34005KT P6SM VCSH OVC040=



000
FTUS45 KLKN 271120
TAFWMC
TAF
KWMC 271120Z 2712/2812 16005KT P6SM VCSH OVC050
     FM272000 26007KT P6SM -SHRASN OVC035
     FM280200 34005KT P6SM VCSH OVC040=



000
FTUS45 KLKN 271120
TAFELY
TAF
KELY 271120Z 2712/2812 17009KT P6SM BKN070
     FM272300 19007KT P6SM VCSH OVC040
     FM280100 20009KT 3SM -SHSN OVC012=



000
FTUS45 KLKN 270522
TAFEKO
TAF
KEKO 270522Z 2706/2806 VRB03KT P6SM SCT050 BKN080
     FM271800 20008KT P6SM VCSH OVC050
     FM272200 22005KT P6SM -SHSN OVC040=



000
FTUS45 KLKN 270522
TAFTPH
TAF
KTPH 270522Z 2706/2806 35011KT P6SM BKN120
     FM271800 18012G22KT P6SM BKN070
     FM280000 28007KT P6SM VCSH OVC050=



000
FTUS45 KLKN 270522
TAFELY
TAF
KELY 270522Z 2706/2806 17009KT P6SM BKN070
      TEMPO 2706/2709 VRB06KT
     FM272300 19007KT P6SM VCSH OVC040
     FM280100 20009KT 3SM -SHSN OVC012=



000
FTUS45 KLKN 270522
TAFWMC
TAF
KWMC 270522Z 2706/2806 VRB05KT P6SM SCT080 BKN120
     FM271000 16005KT P6SM VCSH OVC050
     FM272000 26007KT P6SM -SHRASN OVC040=



000
FTUS45 KLKN 270522
TAFWMC
TAF
KWMC 270522Z 2706/2806 VRB05KT P6SM SCT080 BKN120
     FM271000 16005KT P6SM VCSH OVC050
     FM272000 26007KT P6SM -SHRASN OVC040=



000
FTUS45 KLKN 270522
TAFWMC
TAF
KWMC 270522Z 2706/2806 VRB05KT P6SM SCT080 BKN120
     FM271000 16005KT P6SM VCSH OVC050
     FM272000 26007KT P6SM -SHRASN OVC040=



000
FTUS45 KLKN 270522
TAFEKO
TAF
KEKO 270522Z 2706/2806 VRB03KT P6SM SCT050 BKN080
     FM271800 20008KT P6SM VCSH OVC050
     FM272200 22005KT P6SM -SHSN OVC040=



000
FTUS45 KLKN 270522
TAFELY
TAF
KELY 270522Z 2706/2806 17009KT P6SM BKN070
      TEMPO 2706/2709 VRB06KT
     FM272300 19007KT P6SM VCSH OVC040
     FM280100 20009KT 3SM -SHSN OVC012=



000
FTUS45 KLKN 270522
TAFTPH
TAF
KTPH 270522Z 2706/2806 35011KT P6SM BKN120
     FM271800 18012G22KT P6SM BKN070
     FM280000 28007KT P6SM VCSH OVC050=



000
FTUS45 KLKN 270522
TAFTPH
TAF
KTPH 270522Z 2706/2806 35011KT P6SM BKN120
     FM271800 18012G22KT P6SM BKN070
     FM280000 28007KT P6SM VCSH OVC050=



000
FTUS45 KLKN 270522
TAFEKO
TAF
KEKO 270522Z 2706/2806 VRB03KT P6SM SCT050 BKN080
     FM271800 20008KT P6SM VCSH OVC050
     FM272200 22005KT P6SM -SHSN OVC040=



000
FTUS45 KLKN 270522
TAFELY
TAF
KELY 270522Z 2706/2806 17009KT P6SM BKN070
      TEMPO 2706/2709 VRB06KT
     FM272300 19007KT P6SM VCSH OVC040
     FM280100 20009KT 3SM -SHSN OVC012=



000
FTUS45 KLKN 270522
TAFELY
TAF
KELY 270522Z 2706/2806 17009KT P6SM BKN070
      TEMPO 2706/2709 VRB06KT
     FM272300 19007KT P6SM VCSH OVC040
     FM280100 20009KT 3SM -SHSN OVC012=



000
FTUS45 KLKN 270522
TAFTPH
TAF
KTPH 270522Z 2706/2806 35011KT P6SM BKN120
     FM271800 18012G22KT P6SM BKN070
     FM280000 28007KT P6SM VCSH OVC050=



000
FTUS45 KLKN 270522
TAFWMC
TAF
KWMC 270522Z 2706/2806 VRB05KT P6SM SCT080 BKN120
     FM271000 16005KT P6SM VCSH OVC050
     FM272000 26007KT P6SM -SHRASN OVC040=



000
FTUS45 KLKN 270522
TAFEKO
TAF
KEKO 270522Z 2706/2806 VRB03KT P6SM SCT050 BKN080
     FM271800 20008KT P6SM VCSH OVC050
     FM272200 22005KT P6SM -SHSN OVC040=



000
FTUS45 KLKN 270318 AAA
TAFELY
TAF AMD
KELY 270318Z 2703/2724 VRB06KT P6SM OVC080
     FM270500 17009KT P6SM SCT080 BKN120=



000
FTUS45 KLKN 270318 AAA
TAFELY
TAF AMD
KELY 270318Z 2703/2724 VRB06KT P6SM OVC080
     FM270500 17009KT P6SM SCT080 BKN120=



000
FTUS45 KLKN 270100 AAA
TAFEKO
TAF AMD
KEKO 270100Z 2701/2724 30010KT P6SM -SHSN BKN050 OVC080
      TEMPO 2701/2703 VRB15G25KT 4SM -SHSN OVC030
     FM270300 VRB05KT P6SM VCSH OVC050
     FM272000 23008KT P6SM -SHSN OVC050=



000
FTUS45 KLKN 270100 AAA
TAFEKO
TAF AMD
KEKO 270100Z 2701/2724 30010KT P6SM -SHSN BKN050 OVC080
      TEMPO 2701/2703 VRB15G25KT 4SM -SHSN OVC030
     FM270300 VRB05KT P6SM VCSH OVC050
     FM272000 23008KT P6SM -SHSN OVC050=



000
FTUS45 KLKN 262320
TAFEKO
TAF
KEKO 262320Z 2700/2724 28012G22KT P6SM -SHSN BKN050 OVC080
      TEMPO 2700/2702 2SM -SHSN OVC035
     FM270200 VRB05KT P6SM VCSH OVC050
     FM272000 23008KT P6SM -SHSN OVC050=



000
FTUS45 KLKN 262320
TAFTPH
TAF
KTPH 262320Z 2700/2724 33020G32KT P6SM SKC
     FM270500 35010KT P6SM SCT250
     FM272000 19012G22KT P6SM SCT070=



000
FTUS45 KLKN 262320
TAFELY
TAF
KELY 262320Z 2700/2724 32015G25KT P6SM OVC070
     FM270500 18008KT P6SM BKN060=



000
FTUS45 KLKN 262320
TAFWMC
TAF
KWMC 262320Z 2700/2724 32010KT P6SM BKN070
     FM270300 VRB05KT P6SM BKN070
     FM272000 23008KT P6SM -SHRA BKN050=



000
FTUS45 KLKN 262320
TAFWMC
TAF
KWMC 262320Z 2700/2724 32010KT P6SM BKN070
     FM270300 VRB05KT P6SM BKN070
     FM272000 23008KT P6SM -SHRA BKN050=



000
FTUS45 KLKN 262320
TAFWMC
TAF
KWMC 262320Z 2700/2724 32010KT P6SM BKN070
     FM270300 VRB05KT P6SM BKN070
     FM272000 23008KT P6SM -SHRA BKN050=



000
FTUS45 KLKN 262320
TAFWMC
TAF
KWMC 262320Z 2700/2724 32010KT P6SM BKN070
     FM270300 VRB05KT P6SM BKN070
     FM272000 23008KT P6SM -SHRA BKN050=



000
FTUS45 KLKN 262320
TAFELY
TAF
KELY 262320Z 2700/2724 32015G25KT P6SM OVC070
     FM270500 18008KT P6SM BKN060=



000
FTUS45 KLKN 262320
TAFELY
TAF
KELY 262320Z 2700/2724 32015G25KT P6SM OVC070
     FM270500 18008KT P6SM BKN060=



000
FTUS45 KLKN 262320
TAFEKO
TAF
KEKO 262320Z 2700/2724 28012G22KT P6SM -SHSN BKN050 OVC080
      TEMPO 2700/2702 2SM -SHSN OVC035
     FM270200 VRB05KT P6SM VCSH OVC050
     FM272000 23008KT P6SM -SHSN OVC050=



000
FTUS45 KLKN 262320
TAFTPH
TAF
KTPH 262320Z 2700/2724 33020G32KT P6SM SKC
     FM270500 35010KT P6SM SCT250
     FM272000 19012G22KT P6SM SCT070=



000
FTUS45 KLKN 262320
TAFTPH
TAF
KTPH 262320Z 2700/2724 33020G32KT P6SM SKC
     FM270500 35010KT P6SM SCT250
     FM272000 19012G22KT P6SM SCT070=



000
FTUS45 KLKN 262320
TAFEKO
TAF
KEKO 262320Z 2700/2724 28012G22KT P6SM -SHSN BKN050 OVC080
      TEMPO 2700/2702 2SM -SHSN OVC035
     FM270200 VRB05KT P6SM VCSH OVC050
     FM272000 23008KT P6SM -SHSN OVC050=



000
FTUS45 KLKN 262320
TAFELY
TAF
KELY 262320Z 2700/2724 32015G25KT P6SM OVC070
     FM270500 18008KT P6SM BKN060=



000
FTUS45 KLKN 262245 AAA
TAFEKO
TAF AMD
KEKO 262245Z 2623/2718 28012G22KT P6SM VCSH OVC050
      TEMPO 2623/2624 2SM -SHSN
     FM270100 VRB05KT P6SM OVC050=



000
FTUS45 KLKN 261720
TAFWMC
TAF
KWMC 261720Z 2618/2718 33012KT P6SM SCT070
     FM270300 VRB05KT P6SM BKN070=



000
FTUS45 KLKN 261720
TAFWMC
TAF
KWMC 261720Z 2618/2718 33012KT P6SM SCT070
     FM270300 VRB05KT P6SM BKN070=



000
FTUS45 KLKN 261720
TAFELY
TAF
KELY 261720Z 2618/2718 32015G25KT P6SM OVC040
     FM262000 34015G25KT P6SM BKN045
     FM270500 18008KT P6SM BKN045=



000
FTUS45 KLKN 261720
TAFEKO
TAF
KEKO 261720Z 2618/2718 28012G22KT P6SM VCSH OVC050
     FM270100 VRB05KT P6SM OVC050=



000
FTUS45 KLKN 261720
TAFTPH
TAF
KTPH 261720Z 2618/2718 32020G32KT P6SM FEW050
     FM270400 35010KT P6SM SCT250=



000
FTUS45 KLKN 261720
TAFEKO
TAF
KEKO 261720Z 2618/2718 28012G22KT P6SM VCSH OVC050
     FM270100 VRB05KT P6SM OVC050=



000
FTUS45 KLKN 261720
TAFWMC
TAF
KWMC 261720Z 2618/2718 33012KT P6SM SCT070
     FM270300 VRB05KT P6SM BKN070=



000
FTUS45 KLKN 261720
TAFELY
TAF
KELY 261720Z 2618/2718 32015G25KT P6SM OVC040
     FM262000 34015G25KT P6SM BKN045
     FM270500 18008KT P6SM BKN045=



000
FTUS45 KLKN 261720
TAFELY
TAF
KELY 261720Z 2618/2718 32015G25KT P6SM OVC040
     FM262000 34015G25KT P6SM BKN045
     FM270500 18008KT P6SM BKN045=



000
FTUS45 KLKN 261720
TAFTPH
TAF
KTPH 261720Z 2618/2718 32020G32KT P6SM FEW050
     FM270400 35010KT P6SM SCT250=



000
FTUS45 KLKN 261720
TAFWMC
TAF
KWMC 261720Z 2618/2718 33012KT P6SM SCT070
     FM270300 VRB05KT P6SM BKN070=



000
FTUS45 KLKN 261720
TAFEKO
TAF
KEKO 261720Z 2618/2718 28012G22KT P6SM VCSH OVC050
     FM270100 VRB05KT P6SM OVC050=



000
FTUS45 KLKN 261720
TAFTPH
TAF
KTPH 261720Z 2618/2718 32020G32KT P6SM FEW050
     FM270400 35010KT P6SM SCT250=



000
FTUS45 KLKN 261720
TAFTPH
TAF
KTPH 261720Z 2618/2718 32020G32KT P6SM FEW050
     FM270400 35010KT P6SM SCT250=



000
FTUS45 KLKN 261720
TAFELY
TAF
KELY 261720Z 2618/2718 32015G25KT P6SM OVC040
     FM262000 34015G25KT P6SM BKN045
     FM270500 18008KT P6SM BKN045=



000
FTUS45 KLKN 261720
TAFEKO
TAF
KEKO 261720Z 2618/2718 28012G22KT P6SM VCSH OVC050
     FM270100 VRB05KT P6SM OVC050=



000
FTUS45 KLKN 261604 AAA
TAFTPH
TAF AMD
KTPH 261604Z 2616/2712 35020G32KT P6SM SKC
     FM270500 35010KT P6SM SCT250=



000
FTUS45 KLKN 261157 AAA
TAFEKO
TAF AMD
KEKO 261157Z 2612/2712 23005KT P6SM VCSH OVC035
      TEMPO 2612/2614 6SM -SN OVC025
     FM261800 28012G22KT P6SM VCSH OVC040
     FM270100 VRB05KT P6SM OVC050=



000
FTUS45 KLKN 261157 AAA
TAFEKO
TAF AMD
KEKO 261157Z 2612/2712 23005KT P6SM VCSH OVC035
      TEMPO 2612/2614 6SM -SN OVC025
     FM261800 28012G22KT P6SM VCSH OVC040
     FM270100 VRB05KT P6SM OVC050=



000
FTUS45 KLKN 261157 AAA
TAFEKO
TAF AMD
KEKO 261157Z 2612/2712 23005KT P6SM VCSH OVC035
      TEMPO 2612/2614 6SM -SN OVC025
     FM261800 28012G22KT P6SM VCSH OVC040
     FM270100 VRB05KT P6SM OVC050=



000
FTUS45 KLKN 261157 AAA
TAFEKO
TAF AMD
KEKO 261157Z 2612/2712 23005KT P6SM VCSH OVC035
      TEMPO 2612/2614 6SM -SN OVC025
     FM261800 28012G22KT P6SM VCSH OVC040
     FM270100 VRB05KT P6SM OVC050=



000
FTUS45 KLKN 261120
TAFTPH
TAF
KTPH 261120Z 2612/2712 35007KT P6SM BKN150
     FM261700 35020G30KT P6SM SCT150
     FM270300 34015KT P6SM SCT150=



000
FTUS45 KLKN 261120
TAFELY
TAF
KELY 261120Z 2612/2712 18010KT P6SM OVC090
     FM261900 34015G25KT P6SM BKN060
     FM270100 18008KT P6SM VCSH BKN050=



000
FTUS45 KLKN 261120
TAFTPH
TAF
KTPH 261120Z 2612/2712 33012KT P6SM BKN150
     FM261700 35020G30KT P6SM SCT150
     FM270300 34015KT P6SM SCT150=



000
FTUS45 KLKN 261120
TAFELY
TAF
KELY 261120Z 2612/2712 18010KT P6SM OVC090
     FM261900 34015G25KT P6SM BKN060
     FM270100 18008KT P6SM VCSH BKN050=



000
FTUS45 KLKN 261120
TAFWMC
TAF
KWMC 261120Z 2612/2712 32011KT P6SM BKN060
     FM270300 17005KT P6SM SCT060 BKN120=



000
FTUS45 KLKN 261120
TAFEKO
TAF
KEKO 261120Z 2612/2712 VRB05KT P6SM -SHSN OVC035
     FM261800 28012G22KT P6SM VCSH OVC040
     FM270100 VRB05KT P6SM OVC050=



000
FTUS45 KLKN 261120
TAFWMC
TAF
KWMC 261120Z 2612/2712 32011KT P6SM BKN060
     FM270300 17005KT P6SM SCT060 BKN120=



000
FTUS45 KLKN 261120
TAFEKO
TAF
KEKO 261120Z 2612/2712 23005KT P6SM VCSH OVC060
     FM261800 28012G22KT P6SM VCSH OVC050
     FM270100 VRB05KT P6SM OVC050=



000
FTUS45 KLKN 261120
TAFWMC
TAF
KWMC 261120Z 2612/2712 34010KT P6SM BKN060
     FM270300 17005KT P6SM SCT060 BKN120=



000
FTUS45 KLKN 261120
TAFTPH
TAF
KTPH 261120Z 2612/2712 33012KT P6SM BKN150
     FM261700 35020G30KT P6SM SCT150
     FM270300 34015KT P6SM SCT150=



000
FTUS45 KLKN 261120
TAFELY
TAF
KELY 261120Z 2612/2712 18010KT P6SM OVC080
     FM261900 34015G25KT P6SM BKN060
     FM270100 18008KT P6SM VCSH BKN050=



000
FTUS45 KLKN 261120
TAFEKO
TAF
KEKO 261120Z 2612/2712 VRB05KT P6SM -SHSN OVC035
     FM261800 28012G22KT P6SM VCSH OVC040
     FM270100 VRB05KT P6SM OVC050=



000
FTUS45 KLKN 261120
TAFWMC
TAF
KWMC 261120Z 2612/2712 34010KT P6SM BKN060
     FM270300 17005KT P6SM SCT060 BKN120=



000
FTUS45 KLKN 261120
TAFEKO
TAF
KEKO 261120Z 2612/2712 23005KT P6SM VCSH OVC060
     FM261800 28012G22KT P6SM VCSH OVC050
     FM270100 VRB05KT P6SM OVC050=



000
FTUS45 KLKN 261120
TAFTPH
TAF
KTPH 261120Z 2612/2712 35007KT P6SM BKN150
     FM261700 35020G30KT P6SM SCT150
     FM270300 34015KT P6SM SCT150=



000
FTUS45 KLKN 261120
TAFELY
TAF
KELY 261120Z 2612/2712 18010KT P6SM OVC090
     FM261900 34015G25KT P6SM BKN060
     FM270100 18008KT P6SM VCSH BKN050=



000
FTUS45 KLKN 261120
TAFEKO
TAF
KEKO 261120Z 2612/2712 23005KT P6SM VCSH OVC060
     FM261800 28012G22KT P6SM VCSH OVC050
     FM270100 VRB05KT P6SM OVC050=



000
FTUS45 KLKN 261120
TAFWMC
TAF
KWMC 261120Z 2612/2712 32011KT P6SM BKN060
     FM270300 17005KT P6SM SCT060 BKN120=



000
FTUS45 KLKN 261120
TAFWMC
TAF
KWMC 261120Z 2612/2712 32011KT P6SM BKN060
     FM270300 17005KT P6SM SCT060 BKN120=



000
FTUS45 KLKN 261120
TAFWMC
TAF
KWMC 261120Z 2612/2712 34010KT P6SM BKN060
     FM270300 17005KT P6SM SCT060 BKN120=



000
FTUS45 KLKN 261120
TAFTPH
TAF
KTPH 261120Z 2612/2712 33012KT P6SM BKN150
     FM261700 35020G30KT P6SM SCT150
     FM270300 34015KT P6SM SCT150=



000
FTUS45 KLKN 261120
TAFEKO
TAF
KEKO 261120Z 2612/2712 VRB05KT P6SM -SHSN OVC035
     FM261800 28012G22KT P6SM VCSH OVC040
     FM270100 VRB05KT P6SM OVC050=



000
FTUS45 KLKN 261120
TAFELY
TAF
KELY 261120Z 2612/2712 18010KT P6SM OVC080
     FM261900 34015G25KT P6SM BKN060
     FM270100 18008KT P6SM VCSH BKN050=



000
FTUS45 KLKN 261120
TAFEKO
TAF
KEKO 261120Z 2612/2712 23005KT P6SM VCSH OVC060
     FM261800 28012G22KT P6SM VCSH OVC050
     FM270100 VRB05KT P6SM OVC050=



000
FTUS45 KLKN 261120
TAFWMC
TAF
KWMC 261120Z 2612/2712 34010KT P6SM BKN060
     FM270300 17005KT P6SM SCT060 BKN120=



000
FTUS45 KLKN 260530
TAFWMC
TAF
KWMC 260530Z 2606/2706 VRB05KT P6SM BKN100
     FM261700 31011KT P6SM BKN060
     FM270300 17005KT P6SM SCT060 BKN120=



000
FTUS45 KLKN 260530
TAFEKO
TAF
KEKO 260530Z 2606/2706 VRB03KT P6SM BKN090
     FM261200 23005KT P6SM VCSH OVC060
     FM261800 28012G22KT P6SM VCSH OVC050
     FM270100 VRB05KT P6SM OVC050=



000
FTUS45 KLKN 260530
TAFTPH
TAF
KTPH 260530Z 2606/2706 35012KT P6SM BKN150
     FM261700 35020G30KT P6SM SCT150
     FM270300 34015KT P6SM SCT150=



000
FTUS45 KLKN 260530
TAFELY
TAF
KELY 260530Z 2606/2706 17007KT P6SM BKN120
     FM261900 34015G25KT P6SM BKN060
     FM270100 18008KT P6SM VCSH BKN050=



000
FTUS45 KLKN 260530
TAFTPH
TAF
KTPH 260530Z 2606/2706 35012KT P6SM BKN150
     FM261700 35020G30KT P6SM SCT150
     FM270300 34015KT P6SM SCT150=



000
FTUS45 KLKN 260530
TAFEKO
TAF
KEKO 260530Z 2606/2706 VRB03KT P6SM BKN090
     FM261200 23005KT P6SM VCSH OVC060
     FM261800 28012G22KT P6SM VCSH OVC050
     FM270100 VRB05KT P6SM OVC050=



000
FTUS45 KLKN 260530
TAFWMC
TAF
KWMC 260530Z 2606/2706 VRB05KT P6SM BKN100
     FM261700 31011KT P6SM BKN060
     FM270300 17005KT P6SM SCT060 BKN120=



000
FTUS45 KLKN 260530
TAFELY
TAF
KELY 260530Z 2606/2706 17007KT P6SM BKN120
     FM261900 34015G25KT P6SM BKN060
     FM270100 18008KT P6SM VCSH BKN050=



000
FTUS45 KLKN 260102 AAA
TAFELY
TAF AMD
KELY 260102Z 2601/2624 19007KT P6SM BKN120
     FM261900 34015G25KT P6SM -SHSN OVC040=



000
FTUS45 KLKN 260102 AAA
TAFELY
TAF AMD
KELY 260102Z 2601/2624 19007KT P6SM BKN120
     FM261900 34015G25KT P6SM -SHSN OVC040=



000
FTUS45 KLKN 260102 AAA
TAFELY
TAF AMD
KELY 260102Z 2601/2624 19007KT P6SM BKN120
     FM261900 34015G25KT P6SM -SHSN OVC040=



000
FTUS45 KLKN 260102 AAA
TAFELY
TAF AMD
KELY 260102Z 2601/2624 19007KT P6SM BKN120
     FM261900 34015G25KT P6SM -SHSN OVC040=



000
FTUS45 KLKN 260101 AAA
TAFEKO
TAF AMD
KEKO 260101Z 2601/2624 VRB05KT P6SM BKN150 BKN200
     FM261000 22005KT P6SM VCSH OVC070
     FM261600 25012G22KT P6SM -SHSN OVC050=



000
FTUS45 KLKN 260101 AAA
TAFEKO
TAF AMD
KEKO 260101Z 2601/2624 VRB05KT P6SM BKN150 BKN200
     FM261000 22005KT P6SM VCSH OVC070
     FM261600 25012G22KT P6SM -SHSN OVC050=



000
FTUS45 KLKN 252320
TAFWMC
TAF
KWMC 252320Z 2600/2624 31007KT P6SM SCT150 BKN200
     FM260200 VRB05KT P6SM BKN100
     FM261700 31010KT P6SM BKN100=



000
FTUS45 KLKN 252320
TAFEKO
TAF
KEKO 252320Z 2600/2624 28010G20KT P6SM BKN200
     FM260200 VRB05KT P6SM BKN150 BKN200
     FM261000 22005KT P6SM VCSH OVC070
     FM261600 25012G22KT P6SM -SHSN OVC050=



000
FTUS45 KLKN 252320
TAFELY
TAF
KELY 252320Z 2600/2624 31012G22KT P6SM BKN200
     FM260700 19007KT P6SM BKN120
     FM261900 34015G25KT P6SM -SHSN OVC040=



000
FTUS45 KLKN 252320
TAFTPH
TAF
KTPH 252320Z 2600/2624 34018G28KT P6SM BKN250
     FM260400 35012KT P6SM BKN150
     FM261600 35018G32KT P6SM BKN250=



000
FTUS45 KLKN 252320
TAFWMC
TAF
KWMC 252320Z 2600/2624 31007KT P6SM SCT150 BKN200
     FM260200 VRB05KT P6SM BKN100
     FM261700 31010KT P6SM BKN100=



000
FTUS45 KLKN 252320
TAFELY
TAF
KELY 252320Z 2600/2624 31012G22KT P6SM BKN200
     FM260700 19007KT P6SM BKN120
     FM261900 34015G25KT P6SM -SHSN OVC040=



000
FTUS45 KLKN 252320
TAFEKO
TAF
KEKO 252320Z 2600/2624 28010G20KT P6SM BKN200
     FM260200 VRB05KT P6SM BKN150 BKN200
     FM261000 22005KT P6SM VCSH OVC070
     FM261600 25012G22KT P6SM -SHSN OVC050=



000
FTUS45 KLKN 252320
TAFTPH
TAF
KTPH 252320Z 2600/2624 34018G28KT P6SM BKN250
     FM260400 35012KT P6SM BKN150
     FM261600 35018G32KT P6SM BKN250=



000
FTUS45 KLKN 251720
TAFEKO
TAF
KEKO 251720Z 2518/2618 25009KT P6SM FEW090
     FM252000 29010G20KT P6SM SCT250
     FM260200 VRB05KT P6SM BKN150 BKN200
     FM261000 22005KT P6SM VCSH OVC070
     FM261500 VRB05KT P6SM -SHSN OVC040=



000
FTUS45 KLKN 251720
TAFWMC
TAF
KWMC 251720Z 2518/2618 VRB05KT P6SM SCT100 SCT250
     FM252000 31007KT P6SM BKN250
     FM260200 VRB05KT P6SM BKN100=



000
FTUS45 KLKN 251720
TAFEKO
TAF
KEKO 251720Z 2518/2618 25009KT P6SM FEW090
     FM252000 29010G20KT P6SM SCT250
     FM260200 VRB05KT P6SM BKN150 BKN200
     FM261000 22005KT P6SM VCSH OVC070
     FM261500 VRB05KT P6SM -SHSN OVC040=



000
FTUS45 KLKN 251720
TAFWMC
TAF
KWMC 251720Z 2518/2618 VRB05KT P6SM SCT100 SCT250
     FM252000 31007KT P6SM BKN250
     FM260200 VRB05KT P6SM BKN100=



000
FTUS45 KLKN 251720
TAFEKO
TAF
KEKO 251720Z 2518/2618 25009KT P6SM FEW090
     FM252000 29010G20KT P6SM SCT250
     FM260200 VRB05KT P6SM BKN150 BKN200
     FM261000 22005KT P6SM VCSH OVC070
     FM261500 VRB05KT P6SM -SHSN OVC040=



000
FTUS45 KLKN 251720
TAFWMC
TAF
KWMC 251720Z 2518/2618 VRB05KT P6SM SCT100 SCT250
     FM252000 31007KT P6SM BKN250
     FM260200 VRB05KT P6SM BKN100=



000
FTUS45 KLKN 251720
TAFEKO
TAF
KEKO 251720Z 2518/2618 25009KT P6SM FEW090
     FM252000 29010G20KT P6SM SCT250
     FM260200 VRB05KT P6SM BKN150 BKN200
     FM261000 22005KT P6SM VCSH OVC070
     FM261500 VRB05KT P6SM -SHSN OVC040=



000
FTUS45 KLKN 251720
TAFWMC
TAF
KWMC 251720Z 2518/2618 VRB05KT P6SM SCT100 SCT250
     FM252000 31007KT P6SM BKN250
     FM260200 VRB05KT P6SM BKN100=



000
FTUS45 KLKN 251720
TAFTPH
TAF
KTPH 251720Z 2518/2618 34018G28KT P6SM SCT250
     FM260400 35012KT P6SM BKN150=



000
FTUS45 KLKN 251720
TAFELY
TAF
KELY 251720Z 2518/2618 33010KT P6SM SKC
     FM251900 33012G22KT P6SM BKN150
     FM260700 19007KT P6SM BKN120
     FM261500 VRB05KT P6SM VCSH BKN050=



000
FTUS45 KLKN 251136
TAFEKO
TAF
KEKO 251136Z 2512/2612 VRB05KT P6SM BKN200
     FM251800 28012KT P6SM BKN150
     FM260200 VRB05KT P6SM BKN120
     FM261000 22005KT P6SM VCSH OVC060=



000
FTUS45 KLKN 251136
TAFTPH
TAF
KTPH 251136Z 2512/2612 36011KT P6SM SKC
     FM252000 34018G28KT P6SM SCT150
     FM260400 35012KT P6SM BKN150=



000
FTUS45 KLKN 251136
TAFELY
TAF
KELY 251136Z 2512/2612 19010KT P6SM FEW200
     FM251800 33012G22KT P6SM BKN150
     FM260300 VRB06KT P6SM BKN120=



000
FTUS45 KLKN 251136
TAFWMC
TAF
KWMC 251136Z 2512/2612 VRB05KT P6SM SCT200
     FM251800 35008KT P6SM BKN120
     FM261100 28007KT P6SM VCSH OVC080=



000
FTUS45 KLKN 251136
TAFELY
TAF
KELY 251136Z 2512/2612 19010KT P6SM FEW200
     FM251800 33012G22KT P6SM BKN150
     FM260300 VRB06KT P6SM BKN120=



000
FTUS45 KLKN 251136
TAFTPH
TAF
KTPH 251136Z 2512/2612 36011KT P6SM SKC
     FM252000 34018G28KT P6SM SCT150
     FM260400 35012KT P6SM BKN150=



000
FTUS45 KLKN 251136
TAFEKO
TAF
KEKO 251136Z 2512/2612 VRB05KT P6SM BKN200
     FM251800 28012KT P6SM BKN150
     FM260200 VRB05KT P6SM BKN120
     FM261000 22005KT P6SM VCSH OVC060=



000
FTUS45 KLKN 251136
TAFWMC
TAF
KWMC 251136Z 2512/2612 VRB05KT P6SM SCT200
     FM251800 35008KT P6SM BKN120
     FM261100 28007KT P6SM VCSH OVC080=



000
FTUS45 KLKN 251136
TAFWMC
TAF
KWMC 251136Z 2512/2612 VRB05KT P6SM SCT200
     FM251800 35008KT P6SM BKN120
     FM261100 28007KT P6SM VCSH OVC080=



000
FTUS45 KLKN 251136
TAFTPH
TAF
KTPH 251136Z 2512/2612 36011KT P6SM SKC
     FM252000 34018G28KT P6SM SCT150
     FM260400 35012KT P6SM BKN150=



000
FTUS45 KLKN 251136
TAFELY
TAF
KELY 251136Z 2512/2612 19010KT P6SM FEW200
     FM251800 33012G22KT P6SM BKN150
     FM260300 VRB06KT P6SM BKN120=



000
FTUS45 KLKN 251136
TAFTPH
TAF
KTPH 251136Z 2512/2612 36011KT P6SM SKC
     FM252000 34018G28KT P6SM SCT150
     FM260400 35012KT P6SM BKN150=



000
FTUS45 KLKN 251136
TAFELY
TAF
KELY 251136Z 2512/2612 19010KT P6SM FEW200
     FM251800 33012G22KT P6SM BKN150
     FM260300 VRB06KT P6SM BKN120=



000
FTUS45 KLKN 251136
TAFEKO
TAF
KEKO 251136Z 2512/2612 VRB05KT P6SM BKN200
     FM251800 28012KT P6SM BKN150
     FM260200 VRB05KT P6SM BKN120
     FM261000 22005KT P6SM VCSH OVC060=



000
FTUS45 KLKN 250534
TAFELY
TAF
KELY 250534Z 2506/2606 19010KT P6SM FEW200
     FM251800 33012G22KT P6SM BKN150
     FM260300 VRB06KT P6SM BKN120=



000
FTUS45 KLKN 250534
TAFTPH
TAF
KTPH 250534Z 2506/2606 33015KT P6SM SKC
     FM252000 34018G28KT P6SM SCT150
     FM260400 35012KT P6SM BKN150=



000
FTUS45 KLKN 250534
TAFWMC
TAF
KWMC 250534Z 2506/2606 VRB05KT P6SM BKN200
     FM251800 35008KT P6SM BKN150=



000
FTUS45 KLKN 250534
TAFEKO
TAF
KEKO 250534Z 2506/2606 VRB05KT P6SM SCT200
     FM251800 28012KT P6SM BKN150
     FM260200 VRB05KT P6SM BKN120=



000
FTUS45 KLKN 250534
TAFELY
TAF
KELY 250534Z 2506/2606 19010KT P6SM FEW200
     FM251800 33012G22KT P6SM BKN150
     FM260300 VRB06KT P6SM BKN120=



000
FTUS45 KLKN 250534
TAFWMC
TAF
KWMC 250534Z 2506/2606 VRB05KT P6SM BKN200
     FM251800 35008KT P6SM BKN150=



000
FTUS45 KLKN 250534
TAFEKO
TAF
KEKO 250534Z 2506/2606 VRB05KT P6SM SCT200
     FM251800 28012KT P6SM BKN150
     FM260200 VRB05KT P6SM BKN120=



000
FTUS45 KLKN 250143 AAA
TAFELY
TAF AMD
KELY 250143Z 2502/2524 01010KT P6SM SKC
     FM250400 18010KT P6SM SKC
     FM252000 33015G25KT P6SM SCT120 BKN250=



000
FTUS45 KLKN 250143 AAA
TAFELY
TAF AMD
KELY 250143Z 2502/2524 01010KT P6SM SKC
     FM250400 18010KT P6SM SKC
     FM252000 33015G25KT P6SM SCT120 BKN250=



000
FTUS45 KLKN 250141 AAA
TAFEKO
TAF AMD
KEKO 250141Z 2502/2524 21012KT P6SM SCT120 BKN250
     FM250200 VRB05KT P6SM BKN250
     FM252000 30012KT P6SM SCT120 BKN250=



000
FTUS45 KLKN 242329
TAFEKO
TAF
KEKO 242329Z 2500/2524 26010G20KT P6SM SKC
     FM250200 VRB05KT P6SM SKC=



000
FTUS45 KLKN 242329
TAFELY
TAF
KELY 242329Z 2500/2524 35012G20KT P6SM SKC
     FM250200 VRB05KT P6SM SKC=



000
FTUS45 KLKN 242329
TAFWMC
TAF
KWMC 242329Z 2500/2524 VRB05KT P6SM SKC=



000
FTUS45 KLKN 242329
TAFTPH
TAF
KTPH 242329Z 2500/2524 35015G25KT P6SM SKC
     FM250300 34010KT P6SM SKC=



000
FTUS45 KLKN 242329
TAFELY
TAF
KELY 242329Z 2500/2524 35012G20KT P6SM SKC
     FM250200 VRB05KT P6SM SKC=



000
FTUS45 KLKN 242329
TAFWMC
TAF
KWMC 242329Z 2500/2524 VRB05KT P6SM SKC=



000
FTUS45 KLKN 242329
TAFEKO
TAF
KEKO 242329Z 2500/2524 26010G20KT P6SM SKC
     FM250200 VRB05KT P6SM SKC=



000
FTUS45 KLKN 242329
TAFTPH
TAF
KTPH 242329Z 2500/2524 35015G25KT P6SM SKC
     FM250300 34010KT P6SM SKC=



000
FTUS45 KLKN 241720
TAFTPH
TAF
KTPH 241720Z 2418/2518 35015KT P6SM SKC
     FM241900 34015G25KT P6SM SKC
     FM250300 34010KT P6SM SKC=



000
FTUS45 KLKN 241720
TAFEKO
TAF
KEKO 241720Z 2418/2518 VRB03KT P6SM SKC
     FM242000 26010G20KT P6SM SKC
     FM250200 VRB05KT P6SM SKC=



000
FTUS45 KLKN 241720
TAFWMC
TAF
KWMC 241720Z 2418/2518 VRB05KT P6SM SKC=



000
FTUS45 KLKN 241720
TAFTPH
TAF
KTPH 241720Z 2418/2518 35015KT P6SM SKC
     FM241900 34015G25KT P6SM SKC
     FM250300 34010KT P6SM SKC=



000
FTUS45 KLKN 241720
TAFELY
TAF
KELY 241720Z 2418/2518 34007KT P6SM SKC
     FM242000 35012G20KT P6SM SKC
     FM250200 VRB05KT P6SM SKC=



000
FTUS45 KLKN 241720
TAFEKO
TAF
KEKO 241720Z 2418/2518 VRB03KT P6SM SKC
     FM242000 26010G20KT P6SM SKC
     FM250200 VRB05KT P6SM SKC=



000
FTUS45 KLKN 241720
TAFWMC
TAF
KWMC 241720Z 2418/2518 VRB05KT P6SM SKC=



000
FTUS45 KLKN 241720
TAFELY
TAF
KELY 241720Z 2418/2518 34007KT P6SM SKC
     FM242000 35012G20KT P6SM SKC
     FM250200 VRB05KT P6SM SKC=



    US Dept of Commerce
    National Oceanic and Atmospheric Administration
    National Weather Service
    1325 East West Highway
    Silver Spring, MD 20910
    Page Author: NWS Internet Services Team
Disclaimer
Information Quality
Credits
Glossary
Privacy Policy
Freedom of Information Act (FOIA)
About Us
Career Opportunities